createdAt,value
2018-01-14T00:00:20.506Z,4.72
2018-01-14T00:02:47.978Z,4.76
2018-01-14T00:05:15.430Z,4.71
2018-01-14T00:07:42.935Z,4.70
2018-01-14T00:10:10.395Z,4.68
2018-01-14T00:12:37.848Z,4.67
2018-01-14T00:15:05.409Z,4.74
2018-01-14T00:17:32.862Z,4.65
2018-01-14T00:20:00.335Z,4.62
2018-01-14T00:22:27.786Z,4.63
2018-01-14T00:24:55.255Z,4.59
2018-01-14T00:27:22.740Z,4.59
2018-01-14T00:29:50.206Z,4.52
2018-01-14T00:32:17.655Z,4.54
2018-01-14T00:34:45.124Z,4.53
2018-01-14T00:37:12.571Z,4.49
2018-01-14T00:39:40.157Z,4.51
2018-01-14T00:42:07.615Z,4.53
2018-01-14T00:44:35.095Z,4.47
2018-01-14T00:47:02.613Z,4.47
2018-01-14T00:49:30.107Z,4.48
2018-01-14T00:51:57.579Z,4.45
2018-01-14T00:54:25.031Z,4.44
2018-01-14T00:56:52.500Z,4.43
2018-01-14T00:59:20.033Z,4.45
2018-01-14T01:01:47.499Z,4.39
2018-01-14T01:04:15.071Z,4.37
2018-01-14T01:06:42.540Z,4.40
2018-01-14T01:09:09.986Z,4.39
2018-01-14T01:11:37.450Z,4.36
2018-01-14T01:14:04.903Z,4.35
2018-01-14T01:16:32.511Z,4.34
2018-01-14T01:19:00.005Z,4.29
2018-01-14T01:21:27.477Z,4.31
2018-01-14T01:23:55.008Z,4.30
2018-01-14T01:26:22.454Z,4.24
2018-01-14T01:28:49.925Z,4.23
2018-01-14T01:31:17.397Z,4.23
2018-01-14T01:33:44.866Z,4.23
2018-01-14T01:36:12.315Z,4.25
2018-01-14T01:38:39.848Z,4.27
2018-01-14T01:41:08.175Z,4.25
2018-01-14T01:43:35.667Z,4.23
2018-01-14T01:46:03.120Z,4.21
2018-01-14T01:48:30.588Z,4.15
2018-01-14T01:50:58.103Z,4.12
2018-01-14T01:53:25.721Z,4.11
2018-01-14T01:55:53.173Z,4.12
2018-01-14T01:58:20.700Z,4.04
2018-01-14T02:00:48.239Z,4.08
2018-01-14T02:03:15.695Z,4.09
2018-01-14T02:05:43.166Z,4.04
2018-01-14T02:08:10.625Z,4.00
2018-01-14T02:10:38.095Z,4.00
2018-01-14T02:13:05.550Z,4.01
2018-01-14T02:15:33.019Z,4.00
2018-01-14T02:18:00.535Z,3.99
2018-01-14T02:20:28.010Z,3.97
2018-01-14T02:22:55.446Z,3.99
2018-01-14T02:25:22.914Z,3.97
2018-01-14T02:27:50.412Z,3.95
2018-01-14T02:30:17.922Z,3.97
2018-01-14T02:32:45.376Z,3.95
2018-01-14T02:35:12.812Z,3.92
2018-01-14T02:37:40.391Z,3.96
2018-01-14T02:40:07.838Z,3.92
2018-01-14T02:42:35.410Z,3.94
2018-01-14T02:45:02.855Z,3.88
2018-01-14T02:47:30.330Z,3.92
2018-01-14T02:49:57.786Z,3.89
2018-01-14T02:52:25.253Z,3.90
2018-01-14T02:54:52.704Z,3.82
2018-01-14T02:57:20.179Z,3.82
2018-01-14T02:59:47.631Z,3.88
2018-01-14T03:02:15.094Z,3.85
2018-01-14T03:04:42.545Z,3.83
2018-01-14T03:07:10.009Z,3.84
2018-01-14T03:09:37.463Z,3.87
2018-01-14T03:12:04.933Z,3.82
2018-01-14T03:14:32.443Z,3.80
2018-01-14T03:16:59.890Z,3.86
2018-01-14T03:19:27.345Z,3.76
2018-01-14T03:21:54.776Z,3.80
2018-01-14T03:24:22.247Z,3.74
2018-01-14T03:26:49.694Z,3.69
2018-01-14T03:29:17.156Z,3.69
2018-01-14T03:31:44.588Z,3.62
2018-01-14T03:34:12.063Z,3.65
2018-01-14T03:36:39.551Z,3.66
2018-01-14T03:39:07.019Z,3.67
2018-01-14T03:41:34.518Z,3.58
2018-01-14T03:44:01.994Z,3.56
2018-01-14T03:46:29.885Z,3.63
2018-01-14T03:48:57.366Z,3.58
2018-01-14T03:51:24.817Z,3.59
2018-01-14T03:53:52.271Z,3.53
2018-01-14T03:56:19.741Z,3.51
2018-01-14T03:58:47.185Z,3.49
2018-01-14T04:01:14.648Z,3.48
2018-01-14T04:03:42.120Z,3.49
2018-01-14T04:06:09.607Z,3.53
2018-01-14T04:08:37.099Z,3.52
2018-01-14T04:11:04.566Z,3.44
2018-01-14T04:13:32.079Z,3.50
2018-01-14T04:15:59.552Z,3.46
2018-01-14T04:18:26.997Z,3.41
2018-01-14T04:20:54.467Z,3.40
2018-01-14T04:23:21.950Z,3.45
2018-01-14T04:25:49.504Z,3.37
2018-01-14T04:28:16.945Z,3.43
2018-01-14T04:30:44.412Z,3.42
2018-01-14T04:33:11.858Z,3.38
2018-01-14T04:35:39.378Z,3.33
2018-01-14T04:38:06.829Z,3.31
2018-01-14T04:40:34.311Z,3.31
2018-01-14T04:43:01.758Z,3.32
2018-01-14T04:45:29.210Z,3.27
2018-01-14T04:47:56.678Z,3.23
2018-01-14T04:50:24.120Z,3.20
2018-01-14T04:52:51.584Z,3.23
2018-01-14T04:55:19.095Z,3.19
2018-01-14T04:57:46.620Z,3.22
2018-01-14T05:00:14.082Z,3.17
2018-01-14T05:02:41.550Z,3.18
2018-01-14T05:05:09.106Z,3.22
2018-01-14T05:07:36.578Z,3.14
2018-01-14T05:10:04.035Z,3.14
2018-01-14T05:12:31.542Z,3.19
2018-01-14T05:14:58.980Z,3.15
2018-01-14T05:17:26.421Z,3.17
2018-01-14T05:19:53.891Z,3.14
2018-01-14T05:22:21.339Z,3.17
2018-01-14T05:24:48.848Z,3.10
2018-01-14T05:27:16.308Z,3.06
2018-01-14T05:29:43.779Z,3.10
2018-01-14T05:32:11.345Z,3.09
2018-01-14T05:34:38.822Z,3.03
2018-01-14T05:37:06.266Z,3.03
2018-01-14T05:39:33.735Z,3.02
2018-01-14T05:42:01.186Z,3.02
2018-01-14T05:44:28.726Z,3.02
2018-01-14T05:46:56.175Z,2.98
2018-01-14T05:49:23.646Z,2.97
2018-01-14T05:51:51.098Z,2.99
2018-01-14T05:54:18.766Z,3.00
2018-01-14T05:56:46.300Z,2.96
2018-01-14T05:59:13.751Z,2.91
2018-01-14T06:01:41.253Z,2.91
2018-01-14T06:04:08.782Z,2.94
2018-01-14T06:06:36.252Z,2.93
2018-01-14T06:09:03.728Z,2.94
2018-01-14T06:11:31.204Z,2.95
2018-01-14T06:13:58.702Z,2.88
2018-01-14T06:16:26.188Z,2.91
2018-01-14T06:18:53.641Z,2.93
2018-01-14T06:21:21.115Z,2.86
2018-01-14T06:23:48.632Z,2.87
2018-01-14T06:26:16.104Z,2.90
2018-01-14T06:28:43.554Z,2.84
2018-01-14T06:31:11.037Z,2.85
2018-01-14T06:33:38.518Z,2.90
2018-01-14T06:36:06.026Z,2.90
2018-01-14T06:38:33.476Z,2.87
2018-01-14T06:41:00.940Z,2.85
2018-01-14T06:43:28.406Z,2.85
2018-01-14T06:45:55.866Z,2.81
2018-01-14T06:48:23.324Z,2.85
2018-01-14T06:50:50.787Z,2.83
2018-01-14T06:53:18.250Z,2.83
2018-01-14T06:55:45.711Z,2.82
2018-01-14T06:58:13.187Z,2.76
2018-01-14T07:00:40.692Z,2.83
2018-01-14T07:03:08.144Z,2.76
2018-01-14T07:05:35.608Z,2.76
2018-01-14T07:08:03.075Z,2.78
2018-01-14T07:10:30.539Z,2.82
2018-01-14T07:12:58.078Z,2.82
2018-01-14T07:15:25.529Z,2.85
2018-01-14T07:17:52.999Z,2.77
2018-01-14T07:20:20.454Z,2.80
2018-01-14T07:22:48.262Z,2.79
2018-01-14T07:25:15.760Z,2.81
2018-01-14T07:27:43.216Z,2.79
2018-01-14T07:30:10.687Z,2.80
2018-01-14T07:32:38.138Z,2.81
2018-01-14T07:35:05.750Z,2.96
2018-01-14T07:37:33.199Z,2.86
2018-01-14T07:40:00.765Z,2.84
2018-01-14T07:42:28.211Z,2.82
2018-01-14T07:44:55.679Z,2.82
2018-01-14T07:47:23.120Z,2.78
2018-01-14T07:49:50.588Z,2.85
2018-01-14T07:52:18.041Z,2.84
2018-01-14T07:54:45.607Z,2.88
2018-01-14T07:57:13.895Z,2.85
2018-01-14T07:59:41.388Z,2.82
2018-01-14T08:02:08.848Z,2.78
2018-01-14T08:04:36.315Z,2.88
2018-01-14T08:07:03.804Z,2.86
2018-01-14T08:09:31.251Z,2.89
2018-01-14T08:11:58.738Z,2.91
2018-01-14T08:14:26.203Z,2.86
2018-01-14T08:16:53.793Z,2.80
2018-01-14T08:19:21.255Z,2.87
2018-01-14T08:21:48.725Z,2.90
2018-01-14T08:24:16.228Z,2.89
2018-01-14T08:26:43.698Z,2.90
2018-01-14T08:29:11.158Z,2.92
2018-01-14T08:31:38.613Z,2.94
2018-01-14T08:34:06.062Z,2.91
2018-01-14T08:36:33.527Z,2.90
2018-01-14T08:39:00.969Z,2.89
2018-01-14T08:41:28.454Z,2.93
2018-01-14T08:43:55.907Z,2.92
2018-01-14T08:46:23.370Z,2.95
2018-01-14T08:48:50.842Z,2.97
2018-01-14T08:51:18.300Z,2.93
2018-01-14T08:53:45.778Z,2.88
2018-01-14T08:56:13.230Z,2.98
2018-01-14T08:58:40.707Z,2.93
2018-01-14T09:01:08.171Z,2.99
2018-01-14T09:03:36.779Z,3.04
2018-01-14T09:06:04.234Z,3.01
2018-01-14T09:08:31.963Z,2.97
2018-01-14T09:10:59.434Z,3.03
2018-01-14T09:13:26.921Z,3.04
2018-01-14T09:15:54.366Z,3.08
2018-01-14T09:18:21.838Z,3.07
2018-01-14T09:20:49.298Z,3.06
2018-01-14T09:23:16.782Z,3.07
2018-01-14T09:25:44.247Z,3.11
2018-01-14T09:28:11.741Z,3.11
2018-01-14T09:30:50.854Z,3.17
2018-01-14T09:33:18.332Z,3.14
2018-01-14T09:35:46.721Z,3.09
2018-01-14T09:38:14.192Z,3.15
2018-01-14T09:40:41.658Z,3.16
2018-01-14T09:43:09.143Z,3.14
2018-01-14T09:45:36.622Z,3.15
2018-01-14T09:48:04.061Z,3.22
2018-01-14T09:50:31.531Z,3.18
2018-01-14T09:52:58.974Z,3.25
2018-01-14T09:55:26.424Z,3.22
2018-01-14T09:57:53.891Z,3.27
2018-01-14T10:00:21.359Z,3.28
2018-01-14T10:02:48.818Z,3.33
2018-01-14T10:05:16.311Z,3.33
2018-01-14T10:07:43.786Z,3.38
2018-01-14T10:10:11.254Z,3.38
2018-01-14T10:12:38.710Z,3.30
2018-01-14T10:15:06.191Z,3.28
2018-01-14T10:17:33.701Z,3.26
2018-01-14T10:20:01.166Z,3.33
2018-01-14T10:22:28.618Z,3.37
2018-01-14T10:24:56.098Z,3.35
2018-01-14T10:27:23.573Z,3.39
2018-01-14T10:29:51.081Z,3.42
2018-01-14T10:32:18.554Z,3.41
2018-01-14T10:34:46.003Z,3.49
2018-01-14T10:37:13.473Z,3.37
2018-01-14T10:39:40.949Z,3.42
2018-01-14T10:42:08.425Z,3.41
2018-01-14T10:44:35.871Z,3.44
2018-01-14T10:47:03.380Z,3.54
2018-01-14T10:49:30.826Z,3.66
2018-01-14T10:51:58.274Z,3.54
2018-01-14T10:54:25.783Z,3.48
2018-01-14T10:56:53.311Z,3.56
2018-01-14T10:59:20.784Z,3.51
2018-01-14T11:01:48.235Z,3.60
2018-01-14T11:04:15.733Z,3.63
2018-01-14T11:06:43.187Z,3.58
2018-01-14T11:09:12.036Z,3.76
2018-01-14T11:11:38.113Z,3.69
2018-01-14T11:14:05.588Z,3.59
2018-01-14T11:16:33.040Z,3.66
2018-01-14T11:19:00.523Z,3.68
2018-01-14T11:21:27.974Z,3.65
2018-01-14T11:23:55.426Z,3.65
2018-01-14T11:26:22.890Z,3.71
2018-01-14T11:28:53.281Z,3.72
2018-01-14T11:31:20.758Z,3.84
2018-01-14T11:33:48.248Z,3.71
2018-01-14T11:36:15.721Z,3.73
2018-01-14T11:38:43.174Z,3.79
2018-01-14T11:41:10.648Z,3.82
2018-01-14T11:43:38.104Z,3.92
2018-01-14T11:46:05.560Z,3.93
2018-01-14T11:48:33.014Z,3.91
2018-01-14T11:51:00.491Z,3.91
2018-01-14T11:53:27.980Z,4.01
2018-01-14T11:55:55.443Z,4.10
2018-01-14T11:58:22.894Z,4.16
2018-01-14T12:00:50.367Z,4.13
2018-01-14T12:03:17.820Z,4.15
2018-01-14T12:05:45.271Z,4.12
2018-01-14T12:08:12.769Z,4.35
2018-01-14T12:10:40.268Z,4.30
2018-01-14T12:13:07.738Z,4.32
2018-01-14T12:15:35.315Z,4.24
2018-01-14T12:18:02.786Z,4.24
2018-01-14T12:20:30.318Z,4.12
2018-01-14T12:22:57.772Z,4.21
2018-01-14T12:25:25.227Z,4.23
2018-01-14T12:27:52.724Z,4.23
2018-01-14T12:30:20.178Z,4.28
2018-01-14T12:32:59.562Z,4.31
2018-01-14T12:35:27.006Z,4.27
2018-01-14T12:37:54.482Z,4.33
2018-01-14T12:40:21.924Z,4.37
2018-01-14T12:42:49.399Z,4.43
2018-01-14T12:45:16.866Z,4.42
2018-01-14T12:47:44.306Z,4.45
2018-01-14T12:50:11.763Z,4.47
2018-01-14T12:52:39.215Z,4.64
2018-01-14T12:55:06.690Z,4.60
2018-01-14T12:57:34.250Z,4.66
2018-01-14T13:00:01.727Z,4.69
2018-01-14T13:02:29.182Z,4.65
2018-01-14T13:04:56.676Z,4.56
2018-01-14T13:07:24.121Z,4.59
2018-01-14T13:09:51.586Z,4.56
2018-01-14T13:12:19.072Z,4.54
2018-01-14T13:14:46.550Z,4.57
2018-01-14T13:17:14.008Z,4.50
2018-01-14T13:19:41.464Z,4.59
2018-01-14T13:22:08.942Z,4.59
2018-01-14T13:24:36.471Z,4.59
2018-01-14T13:27:03.938Z,4.87
2018-01-14T13:29:31.483Z,4.99
2018-01-14T13:31:58.950Z,5.33
2018-01-14T13:34:26.460Z,5.42
2018-01-14T13:36:53.880Z,5.57
2018-01-14T13:39:21.317Z,5.70
2018-01-14T13:41:48.781Z,5.91
2018-01-14T13:44:16.231Z,6.03
2018-01-14T13:46:43.744Z,5.87
2018-01-14T13:49:11.194Z,5.86
2018-01-14T13:51:38.655Z,5.94
2018-01-14T13:54:06.105Z,5.85
2018-01-14T13:56:33.559Z,5.67
2018-01-14T13:59:01.036Z,5.81
2018-01-14T14:01:28.476Z,5.82
2018-01-14T14:03:55.959Z,5.70
2018-01-14T14:06:23.411Z,5.75
2018-01-14T14:08:50.865Z,5.75
2018-01-14T14:11:18.326Z,5.68
2018-01-14T14:13:45.831Z,5.62
2018-01-14T14:16:13.286Z,5.53
2018-01-14T14:18:40.815Z,5.48
2018-01-14T14:21:08.267Z,5.45
2018-01-14T14:23:35.838Z,5.50
2018-01-14T14:26:03.287Z,5.61
2018-01-14T14:28:30.772Z,5.55
2018-01-14T14:30:58.213Z,5.59
2018-01-14T14:33:25.683Z,5.65
2018-01-14T14:35:53.149Z,5.66
2018-01-14T14:38:20.633Z,5.61
2018-01-14T14:40:48.135Z,5.57
2018-01-14T14:43:15.698Z,5.60
2018-01-14T14:45:43.145Z,5.35
2018-01-14T14:48:10.622Z,5.34
2018-01-14T14:50:38.080Z,5.36
2018-01-14T14:53:05.546Z,5.26
2018-01-14T14:55:33.020Z,5.23
2018-01-14T14:58:00.470Z,5.27
2018-01-14T15:00:27.943Z,5.39
2018-01-14T15:02:55.428Z,5.29
2018-01-14T15:05:22.864Z,5.18
2018-01-14T15:07:50.314Z,5.09
2018-01-14T15:10:17.786Z,5.26
2018-01-14T15:12:45.236Z,5.14
2018-01-14T15:15:12.721Z,5.06
2018-01-14T15:17:40.171Z,5.06
2018-01-14T15:20:07.628Z,5.01
2018-01-14T15:22:35.372Z,4.89
2018-01-14T15:25:02.843Z,4.88
2018-01-14T15:27:30.324Z,4.88
2018-01-14T15:29:57.798Z,4.76
2018-01-14T15:32:25.255Z,4.59
2018-01-14T15:34:53.248Z,4.42
2018-01-14T15:37:21.115Z,4.40
2018-01-14T15:39:48.766Z,4.32
2018-01-14T15:42:16.283Z,4.31
2018-01-14T15:44:43.748Z,4.28
2018-01-14T15:47:11.225Z,4.27
2018-01-14T15:49:38.680Z,4.19
2018-01-14T15:52:06.138Z,4.32
2018-01-14T15:54:33.598Z,4.20
2018-01-14T15:57:01.060Z,4.11
2018-01-14T15:59:28.511Z,4.08
2018-01-14T16:01:55.994Z,4.24
2018-01-14T16:04:23.437Z,4.20
2018-01-14T16:06:50.911Z,4.33
2018-01-14T16:09:18.368Z,4.31
2018-01-14T16:11:45.851Z,4.24
2018-01-14T16:14:13.293Z,4.31
2018-01-14T16:16:40.775Z,4.39
2018-01-14T16:19:08.299Z,4.24
2018-01-14T16:21:35.780Z,4.27
2018-01-14T16:24:03.247Z,4.20
2018-01-14T16:26:30.731Z,4.31
2018-01-14T16:28:58.196Z,4.25
2018-01-14T16:31:25.691Z,4.17
2018-01-14T16:33:53.203Z,4.17
2018-01-14T16:36:20.652Z,4.25
2018-01-14T16:38:48.150Z,4.24
2018-01-14T16:41:15.648Z,4.31
2018-01-14T16:43:43.143Z,4.27
2018-01-14T16:46:10.609Z,4.32
2018-01-14T16:48:38.091Z,4.40
2018-01-14T16:51:05.588Z,4.27
2018-01-14T16:53:33.074Z,4.28
2018-01-14T16:56:00.549Z,4.28
2018-01-14T16:58:28.029Z,4.29
2018-01-14T17:00:55.580Z,4.33
2018-01-14T17:03:23.187Z,4.36
2018-01-14T17:05:50.883Z,4.27
2018-01-14T17:08:18.550Z,4.26
2018-01-14T17:10:46.036Z,4.43
2018-01-14T17:13:13.486Z,4.46
2018-01-14T17:15:40.971Z,4.55
2018-01-14T17:18:08.452Z,4.59
2018-01-14T17:20:35.925Z,4.44
2018-01-14T17:23:03.403Z,4.52
2018-01-14T17:25:30.903Z,4.49
2018-01-14T17:27:58.438Z,4.39
2018-01-14T17:30:25.934Z,4.12
2018-01-14T17:32:53.394Z,3.91
2018-01-14T17:35:21.070Z,3.66
2018-01-14T17:37:48.581Z,3.61
2018-01-14T17:40:16.015Z,3.50
2018-01-14T17:42:43.466Z,3.47
2018-01-14T17:45:10.929Z,3.26
2018-01-14T17:47:38.382Z,3.15
2018-01-14T17:50:05.854Z,3.08
2018-01-14T17:52:33.606Z,2.94
2018-01-14T17:55:01.070Z,2.87
2018-01-14T17:57:28.519Z,2.89
2018-01-14T17:59:55.961Z,2.77
2018-01-14T18:02:23.426Z,2.86
2018-01-14T18:04:50.912Z,2.87
2018-01-14T18:07:18.391Z,2.95
2018-01-14T18:09:45.828Z,2.85
2018-01-14T18:12:13.306Z,2.79
2018-01-14T18:14:40.774Z,2.72
2018-01-14T18:20:05.238Z,2.67
2018-01-14T18:22:32.781Z,2.66
2018-01-14T18:25:00.233Z,2.72
2018-01-14T18:27:27.689Z,2.41
2018-01-14T18:35:40.331Z,2.38
2018-01-14T18:38:07.805Z,2.40
2018-01-14T18:40:35.251Z,2.34
2018-01-14T18:43:02.819Z,2.33
2018-01-14T18:45:57.247Z,2.12
2018-01-14T18:48:24.723Z,2.09
2018-01-14T18:50:52.177Z,2.08
2018-01-14T18:53:19.659Z,2.00
2018-01-14T18:55:47.134Z,2.09
2018-01-14T18:58:14.591Z,2.00
2018-01-14T19:00:42.283Z,1.97
2018-01-14T19:03:09.730Z,1.80
2018-01-14T19:05:37.186Z,1.90
2018-01-14T19:08:04.627Z,2.03
2018-01-14T19:10:32.214Z,1.96
2018-01-14T19:12:59.747Z,1.93
2018-01-14T19:15:27.236Z,1.98
2018-01-14T19:17:54.711Z,2.02
2018-01-14T19:20:22.190Z,2.08
2018-01-14T19:22:49.640Z,2.03
2018-01-14T19:25:17.098Z,2.00
2018-01-14T19:27:44.566Z,1.86
2018-01-14T19:30:12.026Z,1.71
2018-01-14T19:32:39.517Z,1.75
2018-01-14T19:35:06.995Z,1.65
2018-01-14T19:37:34.497Z,1.67
2018-01-14T19:40:02.130Z,1.61
2018-01-14T19:42:29.845Z,1.35
2018-01-14T19:44:57.367Z,1.30
2018-01-14T19:47:24.846Z,1.25
2018-01-14T19:49:52.548Z,1.27
2018-01-14T19:52:20.329Z,1.09
2018-01-14T19:54:47.833Z,1.02
2018-01-14T19:57:15.628Z,0.97
2018-01-14T19:59:43.091Z,0.91
2018-01-14T20:02:10.620Z,0.76
2018-01-14T20:04:38.098Z,0.68
2018-01-14T20:07:05.648Z,0.64
2018-01-14T20:09:33.155Z,0.79
2018-01-14T20:12:00.653Z,0.69
2018-01-14T20:14:28.118Z,0.91
2018-01-14T20:16:55.567Z,0.81
2018-01-14T20:19:23.042Z,0.67
2018-01-14T20:21:50.582Z,0.68
2018-01-14T20:24:18.054Z,0.71
2018-01-14T20:26:45.519Z,0.81
2018-01-14T20:29:13.003Z,0.77
2018-01-14T20:31:40.457Z,0.61
2018-01-14T20:34:07.920Z,0.56
2018-01-14T20:36:35.369Z,0.54
2018-01-14T20:39:02.859Z,0.40
2018-01-14T20:41:30.328Z,0.45
2018-01-14T20:43:57.790Z,0.56
2018-01-14T20:46:25.268Z,0.44
2018-01-14T20:48:52.709Z,0.49
2018-01-14T20:51:20.170Z,0.74
2018-01-14T20:53:47.615Z,0.51
2018-01-14T20:56:15.619Z,0.31
2018-01-14T20:58:43.076Z,0.29
2018-01-14T21:01:10.571Z,0.17
2018-01-14T21:03:38.027Z,0.60
2018-01-14T21:06:05.494Z,0.29
2018-01-14T21:08:32.941Z,0.18
2018-01-14T21:11:00.413Z,0.28
2018-01-14T21:13:27.911Z,0.33
2018-01-14T21:15:55.400Z,0.39
2018-01-14T21:18:22.863Z,0.35
2018-01-14T21:20:50.358Z,0.30
2018-01-14T21:23:17.801Z,0.55
2018-01-14T21:25:45.295Z,0.18
2018-01-14T21:28:12.881Z,0.05
2018-01-14T21:30:40.354Z,0.08
2018-01-14T21:33:07.827Z,0.12
2018-01-14T21:35:35.387Z,-0.17
2018-01-14T21:38:02.839Z,-0.34
2018-01-14T21:40:30.311Z,-0.25
2018-01-14T21:42:57.806Z,-0.39
2018-01-14T21:45:25.265Z,-0.44
2018-01-14T21:47:52.736Z,-0.38
2018-01-14T21:50:20.270Z,-0.21
2018-01-14T21:52:47.794Z,-0.53
2018-01-14T21:55:15.266Z,-0.52
2018-01-14T21:57:42.738Z,-0.47
2018-01-14T22:00:10.223Z,-0.42
2018-01-14T22:02:37.793Z,-0.56
2018-01-14T22:05:05.267Z,-0.68
2018-01-14T22:07:32.739Z,-0.70
2018-01-14T22:10:00.304Z,-0.62
2018-01-14T22:12:28.059Z,-0.55
2018-01-14T22:14:55.527Z,-0.57
2018-01-14T22:17:23.011Z,-0.55
2018-01-14T22:19:50.547Z,-0.39
2018-01-14T22:22:18.207Z,-0.66
2018-01-14T22:24:45.670Z,-0.73
2018-01-14T22:27:13.121Z,-0.64
2018-01-14T22:29:40.602Z,-0.67
2018-01-14T22:32:08.054Z,-0.90
2018-01-14T22:34:35.534Z,-0.83
2018-01-14T22:37:03.006Z,-0.83
2018-01-14T22:39:30.496Z,-0.68
2018-01-14T22:41:58.051Z,-0.63
2018-01-14T22:44:25.601Z,-0.72
2018-01-14T22:46:53.041Z,-0.74
2018-01-14T22:49:20.523Z,-0.83
2018-01-14T22:51:47.978Z,-0.78
2018-01-14T22:54:15.535Z,-0.81
2018-01-14T22:56:42.979Z,-0.90
2018-01-14T22:59:10.474Z,-0.77
2018-01-14T23:01:37.921Z,-0.93
2018-01-14T23:04:05.398Z,-0.98
2018-01-14T23:06:32.947Z,-0.53
2018-01-14T23:09:00.407Z,-0.78
2018-01-14T23:11:27.883Z,-0.82
2018-01-14T23:13:55.337Z,-0.96
2018-01-14T23:16:22.827Z,-0.85
2018-01-14T23:18:50.279Z,-0.97
2018-01-14T23:21:17.763Z,-0.98
2018-01-14T23:23:45.327Z,-1.09
2018-01-14T23:26:12.827Z,-1.07
2018-01-14T23:28:40.269Z,-1.14
2018-01-14T23:31:07.747Z,-1.04
2018-01-14T23:33:35.206Z,-1.11
2018-01-14T23:36:02.678Z,-1.28
2018-01-14T23:38:30.138Z,-1.25
2018-01-14T23:40:57.586Z,-1.24
2018-01-14T23:43:25.050Z,-1.25
2018-01-14T23:45:52.543Z,-1.31
2018-01-14T23:48:20.012Z,-1.23
2018-01-14T23:50:47.462Z,-1.13
2018-01-14T23:53:14.936Z,-1.10
2018-01-14T23:55:42.384Z,-1.08
2018-01-14T23:58:09.854Z,-1.10
